createdAt,value
2023-05-12T00:01:27.314Z,13.62
2023-05-12T00:03:54.096Z,13.59
2023-05-12T00:06:21.426Z,13.68
2023-05-12T00:08:48.096Z,13.51
2023-05-12T00:11:14.691Z,13.63
2023-05-12T00:13:41.296Z,13.53
2023-05-12T00:16:08.028Z,13.48
2023-05-12T00:18:34.624Z,13.46
2023-05-12T00:21:01.186Z,13.53
2023-05-12T00:23:27.684Z,13.46
2023-05-12T00:25:54.243Z,13.51
2023-05-12T00:28:20.924Z,13.43
2023-05-12T00:30:47.428Z,13.40
2023-05-12T00:33:14.007Z,13.25
2023-05-12T00:35:40.647Z,13.46
2023-05-12T00:38:07.243Z,13.26
2023-05-12T00:40:34.051Z,13.27
2023-05-12T00:43:00.608Z,13.02
2023-05-12T00:45:29.436Z,13.01
2023-05-12T00:47:56.800Z,12.94
2023-05-12T00:50:23.508Z,12.97
2023-05-12T00:52:50.224Z,12.94
2023-05-12T00:55:16.941Z,12.82
2023-05-12T00:57:44.004Z,12.73
2023-05-12T01:00:11.060Z,12.68
2023-05-12T01:02:37.843Z,12.61
2023-05-12T01:08:51.502Z,12.83
2023-05-12T01:11:18.007Z,12.46
2023-05-12T01:13:44.573Z,12.50
2023-05-12T01:16:15.290Z,12.54
2023-05-12T01:18:44.031Z,12.50
2023-05-12T01:21:11.233Z,12.54
2023-05-12T01:23:42.443Z,12.28
2023-05-12T01:26:09.951Z,12.38
2023-05-12T01:28:37.769Z,12.37
2023-05-12T01:31:06.479Z,12.22
2023-05-12T01:33:34.100Z,12.40
2023-05-12T01:36:00.559Z,12.32
2023-05-12T01:38:27.511Z,12.35
2023-05-12T01:40:53.980Z,12.24
2023-05-12T01:43:22.196Z,12.13
2023-05-12T01:45:49.003Z,12.22
2023-05-12T01:48:15.501Z,12.26
2023-05-12T01:50:42.446Z,12.23
2023-05-12T01:53:10.607Z,12.19
2023-05-12T01:55:37.127Z,12.19
2023-05-12T01:58:03.634Z,12.11
2023-05-12T02:00:30.397Z,12.12
2023-05-12T02:02:57.055Z,12.17
2023-05-12T02:05:23.612Z,12.03
2023-05-12T02:07:50.162Z,12.10
2023-05-12T02:10:16.890Z,12.04
2023-05-12T02:12:43.456Z,11.97
2023-05-12T02:15:10.230Z,11.97
2023-05-12T02:17:36.873Z,11.89
2023-05-12T02:20:05.212Z,12.03
2023-05-12T02:22:31.679Z,12.02
2023-05-12T02:24:58.087Z,11.86
2023-05-12T02:27:24.562Z,11.80
2023-05-12T02:29:51.228Z,11.75
2023-05-12T02:32:17.643Z,11.79
2023-05-12T02:34:44.233Z,11.77
2023-05-12T02:37:10.795Z,11.66
2023-05-12T02:39:37.259Z,11.67
2023-05-12T02:42:03.916Z,11.57
2023-05-12T02:44:30.361Z,11.66
2023-05-12T02:46:57.969Z,11.54
2023-05-12T02:49:24.511Z,11.43
2023-05-12T02:51:50.988Z,11.33
2023-05-12T02:54:17.494Z,11.44
2023-05-12T02:56:44.102Z,11.52
2023-05-12T02:59:10.831Z,11.36
2023-05-12T03:01:37.321Z,11.19
2023-05-12T03:04:03.824Z,11.20
2023-05-12T03:06:30.551Z,11.14
2023-05-12T03:08:56.986Z,11.05
2023-05-12T03:11:23.553Z,11.07
2023-05-12T03:13:49.974Z,10.99
2023-05-12T03:16:19.438Z,10.87
2023-05-12T03:18:46.277Z,10.89
2023-05-12T03:21:13.184Z,10.69
2023-05-12T03:23:39.623Z,10.89
2023-05-12T03:26:06.265Z,10.87
2023-05-12T03:28:32.738Z,10.80
2023-05-12T03:30:59.225Z,10.85
2023-05-12T03:33:25.680Z,10.68
2023-05-12T03:35:52.190Z,10.78
2023-05-12T03:38:18.727Z,10.92
2023-05-12T03:40:45.168Z,10.77
2023-05-12T03:43:11.601Z,10.74
2023-05-12T03:45:38.000Z,10.59
2023-05-12T03:48:05.039Z,10.45
2023-05-12T03:50:31.544Z,10.44
2023-05-12T03:52:58.140Z,10.52
2023-05-12T03:55:24.663Z,10.59
2023-05-12T03:57:51.401Z,10.59
2023-05-12T04:00:18.549Z,10.65
2023-05-12T04:02:45.323Z,10.48
2023-05-12T04:05:12.054Z,10.55
2023-05-12T04:07:38.590Z,10.55
2023-05-12T04:10:05.421Z,10.47
2023-05-12T04:12:31.974Z,10.52
2023-05-12T04:14:59.013Z,10.41
2023-05-12T04:17:25.539Z,10.28
2023-05-12T04:19:52.701Z,10.70
2023-05-12T04:22:19.228Z,10.73
2023-05-12T04:24:45.699Z,10.49
2023-05-12T04:27:12.658Z,10.35
2023-05-12T04:29:39.090Z,10.38
2023-05-12T04:32:06.090Z,10.36
2023-05-12T04:34:32.598Z,10.48
2023-05-12T04:36:59.037Z,10.45
2023-05-12T04:39:25.505Z,10.39
2023-05-12T04:41:52.135Z,10.43
2023-05-12T04:44:18.582Z,10.30
2023-05-12T04:46:45.065Z,10.31
2023-05-12T04:49:11.642Z,10.40
2023-05-12T04:51:42.976Z,10.18
2023-05-12T04:54:10.384Z,10.31
2023-05-12T04:56:37.485Z,10.31
2023-05-12T04:59:03.932Z,10.29
2023-05-12T05:01:30.838Z,10.34
2023-05-12T05:03:57.647Z,10.21
2023-05-12T05:06:24.111Z,10.32
2023-05-12T05:08:50.711Z,10.47
2023-05-12T05:11:17.209Z,10.59
2023-05-12T05:13:43.712Z,10.63
2023-05-12T05:16:10.291Z,10.72
2023-05-12T05:18:37.827Z,10.65
2023-05-12T05:21:04.459Z,10.76
2023-05-12T05:23:30.986Z,10.91
2023-05-12T05:25:57.475Z,10.92
2023-05-12T05:28:24.006Z,11.15
2023-05-12T05:30:50.516Z,11.16
2023-05-12T05:33:17.135Z,11.20
2023-05-12T05:35:43.801Z,11.20
2023-05-12T05:38:10.376Z,11.34
2023-05-12T05:40:51.469Z,11.56
2023-05-12T05:43:18.450Z,11.72
2023-05-12T05:45:44.893Z,11.86
2023-05-12T05:48:11.487Z,11.76
2023-05-12T05:50:38.058Z,11.74
2023-05-12T05:53:04.564Z,11.79
2023-05-12T05:55:31.106Z,11.77
2023-05-12T05:57:57.558Z,11.77
2023-05-12T06:00:24.068Z,12.02
2023-05-12T06:02:50.768Z,12.06
2023-05-12T06:05:18.091Z,12.20
2023-05-12T06:07:44.788Z,12.19
2023-05-12T06:10:12.609Z,12.25
2023-05-12T06:12:40.875Z,12.24
2023-05-12T06:15:08.334Z,12.12
2023-05-12T06:17:34.896Z,12.33
2023-05-12T06:20:01.560Z,12.41
2023-05-12T06:22:28.044Z,12.50
2023-05-12T06:24:54.512Z,12.70
2023-05-12T06:27:21.022Z,12.83
2023-05-12T06:29:47.440Z,12.59
2023-05-12T06:32:14.030Z,12.68
2023-05-12T06:34:40.635Z,12.93
2023-05-12T06:37:07.052Z,12.86
2023-05-12T06:39:33.489Z,13.20
2023-05-12T06:41:59.950Z,13.22
2023-05-12T06:44:26.799Z,13.08
2023-05-12T06:46:53.582Z,13.24
2023-05-12T06:49:20.468Z,13.19
2023-05-12T06:51:47.056Z,13.32
2023-05-12T06:54:13.702Z,13.62
2023-05-12T06:56:40.211Z,13.90
2023-05-12T06:59:07.201Z,14.10
2023-05-12T07:01:34.074Z,14.12
2023-05-12T07:04:00.653Z,14.54
2023-05-12T07:06:27.813Z,14.44
2023-05-12T07:08:55.323Z,14.86
2023-05-12T07:11:22.769Z,14.88
2023-05-12T07:13:50.848Z,15.18
2023-05-12T07:16:18.653Z,15.32
2023-05-12T07:18:45.988Z,15.32
2023-05-12T07:21:13.311Z,15.53
2023-05-12T07:23:40.105Z,16.11
2023-05-12T07:26:07.354Z,16.45
2023-05-12T07:28:36.621Z,17.00
2023-05-12T07:31:07.507Z,16.72
2023-05-12T07:33:35.066Z,16.87
2023-05-12T07:36:02.620Z,16.54
2023-05-12T07:38:29.149Z,16.75
2023-05-12T07:40:55.892Z,16.55
2023-05-12T07:43:22.446Z,17.46
2023-05-12T07:45:48.888Z,17.44
2023-05-12T07:48:15.603Z,17.41
2023-05-12T07:50:42.236Z,18.12
2023-05-12T07:53:08.964Z,17.82
2023-05-12T07:55:35.753Z,17.71
2023-05-12T07:58:02.548Z,17.93
2023-05-12T08:00:29.054Z,17.99
2023-05-12T08:02:55.746Z,18.41
2023-05-12T08:05:22.514Z,19.13
2023-05-12T08:07:48.898Z,19.07
2023-05-12T08:10:15.338Z,18.77
2023-05-12T08:12:42.368Z,18.73
2023-05-12T08:15:09.495Z,18.76
2023-05-12T08:17:36.450Z,18.48
2023-05-12T08:20:06.646Z,18.64
2023-05-12T08:22:33.652Z,18.86
2023-05-12T08:25:00.288Z,19.06
2023-05-12T08:27:26.942Z,19.08
2023-05-12T08:29:53.384Z,20.49
2023-05-12T08:32:19.986Z,19.98
2023-05-12T08:34:46.624Z,20.29
2023-05-12T08:37:13.404Z,20.38
2023-05-12T08:39:40.056Z,21.08
2023-05-12T08:42:26.434Z,20.40
2023-05-12T08:44:53.983Z,21.17
2023-05-12T08:47:22.940Z,21.29
2023-05-12T08:49:58.924Z,21.15
2023-05-12T08:52:27.234Z,21.38
2023-05-12T08:54:56.484Z,21.82
2023-05-12T08:57:23.798Z,21.97
2023-05-12T08:59:55.946Z,22.41
2023-05-12T09:02:24.420Z,20.91
2023-05-12T09:04:52.380Z,20.07
2023-05-12T09:07:19.893Z,20.29
2023-05-12T09:09:48.817Z,20.11
2023-05-12T09:12:18.207Z,19.91
2023-05-12T09:14:46.860Z,20.31
2023-05-12T09:17:14.360Z,20.06
2023-05-12T09:19:40.871Z,19.94
2023-05-12T09:22:09.492Z,19.37
2023-05-12T09:24:40.003Z,19.91
2023-05-12T09:27:07.161Z,19.74
2023-05-12T09:29:35.862Z,19.89
2023-05-12T09:32:09.178Z,19.80
2023-05-12T09:34:38.769Z,19.65
2023-05-12T09:37:07.712Z,19.36
2023-05-12T09:39:34.341Z,19.90
2023-05-12T09:42:01.065Z,19.95
2023-05-12T09:44:30.400Z,20.30
2023-05-12T09:47:06.586Z,19.33
2023-05-12T09:49:33.088Z,20.22
2023-05-12T09:51:59.740Z,20.58
2023-05-12T09:54:31.013Z,19.65
2023-05-12T09:56:59.873Z,20.11
2023-05-12T09:59:34.421Z,20.23
2023-05-12T10:02:02.517Z,19.98
2023-05-12T10:04:32.387Z,19.24
2023-05-12T10:06:59.525Z,19.46
2023-05-12T10:09:31.497Z,20.05
2023-05-12T10:11:59.117Z,20.25
2023-05-12T10:14:25.859Z,20.67
2023-05-12T10:16:54.132Z,21.16
2023-05-12T10:19:21.451Z,21.84
2023-05-12T10:21:49.160Z,21.34
2023-05-12T10:24:16.928Z,21.06
2023-05-12T10:26:44.725Z,20.83
2023-05-12T10:29:13.342Z,21.47
2023-05-12T10:31:40.204Z,21.75
2023-05-12T10:34:06.940Z,21.74
2023-05-12T10:36:46.877Z,22.10
2023-05-12T10:39:15.470Z,21.61
2023-05-12T10:41:42.729Z,21.35
2023-05-12T10:44:10.782Z,21.33
2023-05-12T10:46:37.612Z,21.07
2023-05-12T10:49:10.026Z,19.96
2023-05-12T10:51:45.588Z,20.07
2023-05-12T10:54:22.985Z,20.13
2023-05-12T10:56:50.604Z,20.42
2023-05-12T10:59:22.834Z,20.57
2023-05-12T11:02:00.644Z,20.81
2023-05-12T11:04:42.745Z,20.72
2023-05-12T11:07:11.819Z,19.95
2023-05-12T11:09:50.613Z,19.61
2023-05-12T11:12:26.386Z,19.19
2023-05-12T11:14:52.832Z,19.53
2023-05-12T11:17:19.296Z,19.93
2023-05-12T11:19:50.642Z,20.19
2023-05-12T11:22:19.944Z,20.03
2023-05-12T11:24:47.438Z,19.76
2023-05-12T11:27:16.449Z,20.02
2023-05-12T11:29:43.676Z,19.71
2023-05-12T11:32:12.466Z,19.64
2023-05-12T11:34:39.579Z,20.34
2023-05-12T11:37:06.698Z,20.52
2023-05-12T11:39:33.521Z,20.34
2023-05-12T11:42:12.981Z,20.55
2023-05-12T11:44:50.059Z,19.49
2023-05-12T11:47:17.682Z,18.58
2023-05-12T11:49:49.794Z,18.25
2023-05-12T11:52:17.095Z,18.06
2023-05-12T11:54:51.600Z,18.22
2023-05-12T11:57:32.430Z,18.42
2023-05-12T12:00:00.616Z,18.33
2023-05-12T12:02:28.193Z,18.20
2023-05-12T12:04:54.989Z,18.48
2023-05-12T12:07:34.877Z,18.53
2023-05-12T12:10:27.474Z,18.78
2023-05-12T12:12:53.926Z,18.82
2023-05-12T12:15:20.605Z,18.58
2023-05-12T12:17:47.298Z,18.41
2023-05-12T12:20:13.844Z,18.72
2023-05-12T12:22:40.292Z,18.55
2023-05-12T12:25:07.372Z,18.87
2023-05-12T12:27:33.813Z,18.69
2023-05-12T12:30:00.316Z,18.93
2023-05-12T12:32:27.137Z,18.83
2023-05-12T12:34:53.887Z,18.74
2023-05-12T12:37:20.466Z,18.52
2023-05-12T12:39:47.903Z,18.34
2023-05-12T12:42:15.630Z,18.53
2023-05-12T12:44:42.411Z,18.59
2023-05-12T12:47:08.894Z,18.74
2023-05-12T12:49:35.350Z,18.30
2023-05-12T12:52:02.136Z,18.03
2023-05-12T12:54:28.828Z,18.07
2023-05-12T12:56:55.931Z,18.09
2023-05-12T12:59:22.863Z,18.49
2023-05-12T13:01:49.377Z,18.50
2023-05-12T13:04:17.144Z,18.37
2023-05-12T13:06:43.811Z,18.42
2023-05-12T13:09:10.794Z,18.46
2023-05-12T13:11:37.661Z,18.58
2023-05-12T13:14:04.646Z,18.48
2023-05-12T13:16:31.676Z,18.58
2023-05-12T13:18:58.557Z,18.41
2023-05-12T13:21:25.304Z,18.39
2023-05-12T13:23:51.784Z,18.19
2023-05-12T13:26:18.272Z,18.75
2023-05-12T13:28:44.749Z,18.63
2023-05-12T13:31:11.660Z,18.76
2023-05-12T13:33:38.334Z,18.64
2023-05-12T13:36:08.332Z,18.87
2023-05-12T13:38:34.851Z,18.78
2023-05-12T13:41:01.966Z,18.67
2023-05-12T13:43:28.462Z,18.85
2023-05-12T13:45:55.067Z,18.89
2023-05-12T13:48:21.646Z,19.14
2023-05-12T13:50:48.120Z,19.01
2023-05-12T13:53:14.651Z,18.76
2023-05-12T13:55:41.521Z,18.41
2023-05-12T13:58:08.086Z,18.59
2023-05-12T14:00:34.634Z,18.45
2023-05-12T14:03:01.743Z,18.41
2023-05-12T14:05:28.431Z,18.40
2023-05-12T14:07:55.054Z,18.47
2023-05-12T14:10:21.532Z,18.42
2023-05-12T14:12:48.236Z,18.66
2023-05-12T14:15:28.773Z,18.51
2023-05-12T14:17:59.877Z,18.47
2023-05-12T14:20:26.460Z,18.40
2023-05-12T14:22:52.914Z,18.52
2023-05-12T14:25:19.578Z,18.53
2023-05-12T14:27:46.405Z,18.43
2023-05-12T14:30:13.453Z,18.49
2023-05-12T14:32:40.023Z,18.55
2023-05-12T14:35:08.333Z,18.52
2023-05-12T14:37:35.153Z,18.73
2023-05-12T14:40:01.886Z,18.73
2023-05-12T14:42:29.591Z,18.67
2023-05-12T14:44:56.432Z,18.67
2023-05-12T14:47:23.039Z,18.55
2023-05-12T14:49:49.655Z,18.31
2023-05-12T14:52:16.345Z,18.44
2023-05-12T14:54:42.783Z,18.34
2023-05-12T14:57:10.527Z,18.33
2023-05-12T14:59:36.986Z,18.55
2023-05-12T15:02:03.518Z,18.66
2023-05-12T15:04:30.726Z,18.60
2023-05-12T15:06:57.225Z,18.58
2023-05-12T15:09:23.795Z,18.46
2023-05-12T15:11:51.464Z,18.34
2023-05-12T15:14:18.121Z,18.55
2023-05-12T15:16:44.716Z,18.79
2023-05-12T15:19:11.356Z,18.76
2023-05-12T15:21:37.897Z,18.92
2023-05-12T15:24:04.507Z,18.87
2023-05-12T15:26:33.819Z,18.64
2023-05-12T15:29:02.062Z,18.73
2023-05-12T15:31:29.828Z,18.66
2023-05-12T15:33:57.637Z,18.48
2023-05-12T15:36:24.184Z,18.52
2023-05-12T15:38:50.693Z,18.41
2023-05-12T15:41:17.201Z,18.45
2023-05-12T15:43:43.671Z,18.68
2023-05-12T15:46:11.380Z,18.71
2023-05-12T15:48:39.151Z,18.43
2023-05-12T15:51:05.839Z,18.51
2023-05-12T15:53:32.634Z,18.48
2023-05-12T15:56:00.892Z,18.53
2023-05-12T15:58:27.663Z,18.52
2023-05-12T16:00:54.702Z,18.24
2023-05-12T16:03:21.520Z,18.41
2023-05-12T16:05:48.412Z,18.40
2023-05-12T16:08:14.905Z,18.35
2023-05-12T16:10:41.427Z,18.21
2023-05-12T16:13:07.910Z,18.31
2023-05-12T16:15:34.404Z,18.29
2023-05-12T16:18:00.896Z,18.15
2023-05-12T16:20:27.359Z,18.41
2023-05-12T16:22:53.895Z,18.27
2023-05-12T16:25:20.521Z,18.34
2023-05-12T16:27:47.124Z,18.24
2023-05-12T16:30:14.132Z,18.24
2023-05-12T16:32:40.644Z,18.33
2023-05-12T16:35:07.791Z,18.15
2023-05-12T16:37:34.371Z,18.30
2023-05-12T16:40:00.934Z,18.23
2023-05-12T16:42:27.356Z,18.15
2023-05-12T16:44:57.187Z,18.12
2023-05-12T16:47:23.686Z,18.18
2023-05-12T16:49:53.532Z,18.06
2023-05-12T16:52:20.593Z,18.11
2023-05-12T16:54:47.809Z,18.14
2023-05-12T16:57:14.244Z,18.13
2023-05-12T16:59:40.987Z,18.11
2023-05-12T17:02:08.339Z,18.13
2023-05-12T17:04:35.031Z,18.06
2023-05-12T17:07:01.617Z,17.88
2023-05-12T17:09:28.223Z,18.00
2023-05-12T17:11:54.783Z,17.97
2023-05-12T17:14:21.292Z,17.90
2023-05-12T17:16:47.695Z,18.00
2023-05-12T17:19:14.792Z,17.85
2023-05-12T17:21:42.326Z,17.62
2023-05-12T17:24:09.221Z,17.70
2023-05-12T17:26:36.024Z,17.71
2023-05-12T17:29:02.558Z,17.69
2023-05-12T17:31:29.189Z,17.73
2023-05-12T17:33:55.750Z,17.78
2023-05-12T17:36:22.524Z,17.66
2023-05-12T17:38:51.526Z,17.73
2023-05-12T17:41:18.633Z,17.68
2023-05-12T17:43:45.365Z,17.62
2023-05-12T17:46:12.028Z,17.55
2023-05-12T17:48:38.881Z,17.65
2023-05-12T17:51:05.932Z,17.37
2023-05-12T17:53:33.972Z,17.48
2023-05-12T17:56:00.493Z,17.46
2023-05-12T17:58:27.207Z,17.58
2023-05-12T18:00:53.776Z,17.36
2023-05-12T18:03:23.812Z,17.47
2023-05-12T18:05:52.105Z,17.35
2023-05-12T18:08:18.883Z,17.40
2023-05-12T18:10:45.790Z,17.38
2023-05-12T18:13:14.553Z,17.39
2023-05-12T18:15:41.735Z,17.31
2023-05-12T18:18:08.996Z,17.24
2023-05-12T18:20:35.770Z,17.13
2023-05-12T18:23:02.265Z,17.14
2023-05-12T18:25:28.684Z,17.11
2023-05-12T18:27:55.141Z,17.01
2023-05-12T18:30:21.685Z,17.06
2023-05-12T18:32:48.257Z,17.03
2023-05-12T18:35:14.781Z,17.03
2023-05-12T18:37:41.292Z,16.98
2023-05-12T18:40:08.360Z,16.93
2023-05-12T18:42:34.963Z,17.05
2023-05-12T18:45:01.426Z,16.81
2023-05-12T18:47:27.913Z,16.94
2023-05-12T18:49:54.574Z,16.92
2023-05-12T18:52:21.385Z,16.75
2023-05-12T18:54:49.687Z,16.74
2023-05-12T18:57:16.516Z,16.64
2023-05-12T18:59:43.141Z,16.73
2023-05-12T19:02:09.788Z,16.70
2023-05-12T19:04:36.609Z,16.61
2023-05-12T19:07:03.862Z,16.68
2023-05-12T19:09:30.293Z,16.50
2023-05-12T19:11:56.786Z,16.46
2023-05-12T19:14:23.282Z,16.55
2023-05-12T19:16:49.774Z,16.38
2023-05-12T19:19:16.328Z,16.42
2023-05-12T19:21:43.013Z,16.40
2023-05-12T19:24:10.641Z,16.43
2023-05-12T19:26:37.442Z,16.32
2023-05-12T19:29:04.504Z,16.37
2023-05-12T19:31:31.282Z,16.32
2023-05-12T19:33:57.949Z,16.23
2023-05-12T19:36:24.592Z,16.21
2023-05-12T19:38:51.275Z,16.12
2023-05-12T19:41:17.850Z,16.13
2023-05-12T19:43:44.393Z,16.07
2023-05-12T19:46:10.980Z,16.11
2023-05-12T19:48:37.544Z,15.92
2023-05-12T19:51:04.013Z,15.95
2023-05-12T19:53:30.686Z,15.96
2023-05-12T19:55:57.179Z,15.93
2023-05-12T19:58:23.850Z,15.98
2023-05-12T20:00:50.352Z,15.83
2023-05-12T20:03:17.060Z,15.85
2023-05-12T20:05:43.922Z,15.80
2023-05-12T20:08:10.476Z,15.69
2023-05-12T20:10:37.011Z,15.79
2023-05-12T20:13:04.395Z,15.70
2023-05-12T20:15:31.356Z,15.66
2023-05-12T20:17:58.245Z,15.59
2023-05-12T20:20:24.870Z,15.58
2023-05-12T20:22:51.889Z,15.59
2023-05-12T20:25:19.619Z,15.48
2023-05-12T20:27:46.581Z,15.43
2023-05-12T20:30:13.401Z,15.40
2023-05-12T20:32:40.212Z,15.37
2023-05-12T20:35:07.038Z,15.26
2023-05-12T20:37:33.693Z,15.28
2023-05-12T20:40:00.176Z,15.20
2023-05-12T20:42:26.781Z,15.19
2023-05-12T20:44:53.810Z,15.11
2023-05-12T20:47:20.366Z,15.14
2023-05-12T20:49:47.131Z,15.05
2023-05-12T20:52:13.621Z,15.06
2023-05-12T20:54:40.094Z,15.07
2023-05-12T20:57:06.605Z,14.91
2023-05-12T20:59:33.270Z,14.92
2023-05-12T21:01:59.774Z,14.91
2023-05-12T21:04:26.308Z,14.86
2023-05-12T21:06:53.725Z,14.87
2023-05-12T21:09:20.543Z,14.87
2023-05-12T21:11:47.221Z,14.84
2023-05-12T21:14:13.800Z,14.84
2023-05-12T21:16:40.423Z,14.88
2023-05-12T21:19:07.132Z,14.81
2023-05-12T21:21:33.750Z,14.69
2023-05-12T21:24:00.274Z,14.72
2023-05-12T21:26:27.609Z,14.71
2023-05-12T21:28:54.074Z,14.51
2023-05-12T21:31:20.635Z,14.57
2023-05-12T21:33:48.052Z,14.52
2023-05-12T21:36:14.568Z,14.58
2023-05-12T21:38:40.984Z,14.47
2023-05-12T21:41:07.485Z,14.39
2023-05-12T21:43:33.965Z,14.48
2023-05-12T21:46:06.591Z,14.39
2023-05-12T21:48:33.459Z,14.34
2023-05-12T21:51:01.611Z,14.33
2023-05-12T21:53:28.829Z,14.34
2023-05-12T21:55:55.914Z,14.27
2023-05-12T21:58:23.675Z,14.14
2023-05-12T22:00:53.025Z,14.25
2023-05-12T22:03:25.120Z,14.17
2023-05-12T22:05:51.813Z,14.19
2023-05-12T22:08:18.656Z,14.12
2023-05-12T22:10:45.189Z,14.06
2023-05-12T22:13:11.676Z,14.06
2023-05-12T22:15:38.335Z,14.10
2023-05-12T22:18:05.051Z,13.99
2023-05-12T22:20:31.661Z,14.02
2023-05-12T22:22:58.633Z,13.98
2023-05-12T22:25:25.342Z,13.96
2023-05-12T22:27:51.786Z,13.88
2023-05-12T22:30:18.903Z,13.80
2023-05-12T22:32:45.526Z,13.82
2023-05-12T22:35:12.061Z,13.92
2023-05-12T22:37:38.636Z,13.83
2023-05-12T22:40:05.805Z,13.73
2023-05-12T22:42:32.383Z,13.75
2023-05-12T22:45:00.726Z,13.61
2023-05-12T22:47:27.229Z,13.65
2023-05-12T22:49:53.678Z,13.54
2023-05-12T22:52:20.238Z,13.61
2023-05-12T22:54:46.727Z,13.67
2023-05-12T22:57:13.249Z,13.41
2023-05-12T22:59:39.684Z,13.35
2023-05-12T23:02:06.125Z,13.52
2023-05-12T23:04:32.578Z,13.50
2023-05-12T23:06:58.984Z,13.40
2023-05-12T23:09:25.395Z,13.37
2023-05-12T23:11:51.964Z,13.24
2023-05-12T23:14:18.458Z,13.32
2023-05-12T23:16:44.917Z,13.38
2023-05-12T23:19:11.557Z,13.32
2023-05-12T23:21:38.129Z,13.13
2023-05-12T23:24:04.994Z,13.23
2023-05-12T23:26:31.612Z,13.07
2023-05-12T23:28:58.411Z,13.06
2023-05-12T23:31:25.306Z,13.13
2023-05-12T23:33:51.964Z,13.06
2023-05-12T23:36:18.515Z,12.99
2023-05-12T23:38:44.964Z,13.11
2023-05-12T23:41:11.463Z,12.92
2023-05-12T23:43:38.970Z,12.93
2023-05-12T23:46:05.807Z,13.08
2023-05-12T23:48:32.300Z,12.82
2023-05-12T23:50:58.973Z,12.75
2023-05-12T23:53:25.747Z,12.62
2023-05-12T23:55:52.462Z,12.81
2023-05-12T23:58:18.931Z,12.65
